Time;durP1;ratioP1;P1;durP2;ratioP2;P2;SDS_P1;SDS_P2;PMS_P1;PMS_P2;Temp;Humidity;BMP_temperature;BMP_pressure;BME280_temperature;BME280_humidity;BME280_pressure;Samples;Min_cycle;Max_cycle;Signal;HPM_P1;HPM_P2
2022/03/01 00:00:44;;;;;;;72.17;67.70;;;2.60;99.90;;;;;;4351074;33;20220;-61
2022/03/01 00:03:12;;;;;;;70.43;65.73;;;2.50;99.90;;;;;;4345854;33;20212;-62
2022/03/01 00:05:39;;;;;;;70.77;66.23;;;2.50;99.90;;;;;;4349221;32;20577;-59
2022/03/01 00:08:06;;;;;;;69.37;64.90;;;2.50;99.90;;;;;;4360019;33;20145;-61
2022/03/01 00:10:33;;;;;;;65.90;61.70;;;2.50;99.90;;;;;;4347726;33;20138;-61
2022/03/01 00:13:01;;;;;;;71.37;66.50;;;2.50;99.90;;;;;;4345593;33;20231;-62
2022/03/01 00:15:28;;;;;;;69.60;64.90;;;2.40;99.90;;;;;;4345395;33;20209;-62
2022/03/01 00:17:55;;;;;;;71.60;67.30;;;2.40;99.90;;;;;;4358892;33;20168;-61
2022/03/01 00:20:21;;;;;;;73.87;69.03;;;2.40;99.90;;;;;;4360620;33;20192;-62
2022/03/01 00:22:48;;;;;;;69.73;65.23;;;2.40;99.90;;;;;;4360065;33;20252;-61
2022/03/01 00:25:15;;;;;;;71.87;67.07;;;2.30;99.90;;;;;;4360242;33;20209;-62
2022/03/01 00:27:45;;;;;;;69.43;65.03;;;2.30;99.90;;;;;;4360875;33;20184;-61
2022/03/01 00:30:13;;;;;;;73.60;68.97;;;2.30;99.90;;;;;;4361526;33;20626;-61
2022/03/01 00:32:40;;;;;;;68.10;63.50;;;2.30;99.90;;;;;;4360478;33;20533;-61
2022/03/01 00:35:07;;;;;;;67.77;63.63;;;2.30;99.90;;;;;;4361005;32;20220;-62
2022/03/01 00:37:34;;;;;;;68.27;63.97;;;2.30;99.90;;;;;;4363028;33;20497;-62
2022/03/01 00:40:01;;;;;;;71.20;66.63;;;2.30;99.90;;;;;;4363672;32;20137;-62
2022/03/01 00:42:28;;;;;;;66.13;61.80;;;2.40;99.90;;;;;;4362057;32;20146;-61
2022/03/01 00:44:55;;;;;;;69.23;64.87;;;2.40;99.90;;;;;;4363654;32;20227;-61
2022/03/01 00:47:23;;;;;;;75.73;70.73;;;2.40;99.90;;;;;;4363308;32;20173;-61
2022/03/01 00:49:50;;;;;;;65.57;61.03;;;2.50;99.90;;;;;;4362878;32;20151;-62
2022/03/01 00:52:17;;;;;;;67.20;62.90;;;2.50;99.90;;;;;;4362764;33;20208;-61
2022/03/01 00:54:43;;;;;;;77.87;73.07;;;2.40;99.90;;;;;;4363476;32;20212;-61
2022/03/01 00:57:10;;;;;;;69.73;65.20;;;2.50;99.90;;;;;;4362769;33;20142;-61
2022/03/01 00:59:37;;;;;;;72.60;68.20;;;2.50;99.90;;;;;;4362868;33;20204;-61
2022/03/01 01:02:04;;;;;;;71.63;66.90;;;2.50;99.90;;;;;;4362316;32;20236;-61
2022/03/01 01:04:32;;;;;;;68.60;64.03;;;2.60;99.90;;;;;;4362471;32;20141;-61
2022/03/01 01:06:59;;;;;;;65.07;60.57;;;2.60;99.90;;;;;;4362567;33;20157;-61
2022/03/01 01:09:26;;;;;;;64.97;60.57;;;2.60;99.90;;;;;;4362706;33;20212;-61
2022/03/01 01:11:53;;;;;;;65.63;61.23;;;2.60;99.90;;;;;;4361362;32;20154;-61
2022/03/01 01:14:20;;;;;;;67.53;63.27;;;2.70;99.90;;;;;;4363032;32;20634;-62
2022/03/01 01:16:46;;;;;;;65.97;61.80;;;2.70;99.90;;;;;;4362267;32;20483;-62
2022/03/01 01:19:17;;;;;;;63.93;59.40;;;2.70;99.90;;;;;;4362942;32;20258;-62
2022/03/01 01:24:29;;;;;;;68.37;64.07;;;2.80;99.90;;;;;;4362987;32;20463;-61
2022/03/01 01:26:56;;;;;;;70.00;65.47;;;2.80;99.90;;;;;;4362518;33;20552;-61
2022/03/01 01:29:23;;;;;;;70.43;65.83;;;2.90;99.90;;;;;;4361746;32;20255;-62
2022/03/01 01:31:50;;;;;;;67.23;62.50;;;3.00;99.90;;;;;;4352912;32;20210;-62
2022/03/01 01:34:18;;;;;;;67.07;62.90;;;3.00;99.90;;;;;;4347613;33;20145;-61
2022/03/01 01:36:46;;;;;;;63.03;58.87;;;3.00;99.90;;;;;;4349190;33;20203;-61
2022/03/01 01:39:15;;;;;;;62.83;58.87;;;3.00;99.90;;;;;;4351296;33;20175;-61
2022/03/01 01:41:45;;;;;;;65.73;61.47;;;3.00;99.90;;;;;;4364035;32;20206;-62
2022/03/01 01:44:15;;;;;;;67.80;63.30;;;3.10;99.90;;;;;;4361530;33;20259;-61
2022/03/01 01:46:41;;;;;;;60.20;56.07;;;3.10;99.90;;;;;;4361931;32;20154;-61
2022/03/01 01:49:09;;;;;;;60.83;56.87;;;3.10;99.90;;;;;;4357077;33;20208;-61
2022/03/01 01:51:36;;;;;;;63.60;59.40;;;3.10;99.90;;;;;;4347279;33;20153;-61
2022/03/01 01:54:06;;;;;;;65.53;61.13;;;3.10;99.90;;;;;;4347259;33;20201;-59
2022/03/01 01:56:33;;;;;;;60.67;56.40;;;3.10;99.90;;;;;;4347302;33;20502;-62
2022/03/01 01:59:00;;;;;;;62.13;57.80;;;3.20;99.90;;;;;;4347297;33;20563;-61
2022/03/01 02:01:27;;;;;;;59.83;55.63;;;3.20;99.90;;;;;;4347253;33;20175;-61
2022/03/01 02:03:54;;;;;;;60.23;56.07;;;3.20;99.90;;;;;;4347238;33;20156;-60
2022/03/01 02:06:21;;;;;;;58.10;54.30;;;3.20;99.90;;;;;;4347310;33;20191;-61
2022/03/01 02:08:47;;;;;;;61.50;56.83;;;3.20;99.90;;;;;;4347588;33;20187;-61
2022/03/01 02:11:16;;;;;;;63.20;58.80;;;3.30;99.90;;;;;;4351296;33;20596;-61
2022/03/01 02:13:43;;;;;;;61.03;56.87;;;3.30;99.90;;;;;;4361903;33;20574;-61
2022/03/01 02:16:11;;;;;;;61.80;57.80;;;3.30;99.90;;;;;;4363359;32;20575;-61
2022/03/01 02:18:38;;;;;;;59.33;55.63;;;3.30;99.90;;;;;;4361757;33;20545;-60
2022/03/01 02:21:06;;;;;;;58.87;55.13;;;3.30;99.90;;;;;;4361778;33;20196;-60
2022/03/01 02:23:33;;;;;;;58.63;54.70;;;3.30;99.90;;;;;;4361622;33;20270;-59
2022/03/01 02:25:59;;;;;;;62.83;58.63;;;3.30;99.90;;;;;;4357660;33;20195;-60
2022/03/01 02:28:27;;;;;;;57.97;54.00;;;3.30;99.90;;;;;;4348120;33;20202;-60
2022/03/01 02:30:55;;;;;;;59.97;55.77;;;3.20;99.90;;;;;;4347972;33;20183;-60
2022/03/01 02:33:22;;;;;;;64.07;59.83;;;3.20;99.90;;;;;;4347484;33;20220;-60
2022/03/01 02:35:55;;;;;;;65.03;60.37;;;3.20;99.90;;;;;;4343867;32;20154;-59
2022/03/01 02:38:23;;;;;;;57.80;53.93;;;3.10;99.90;;;;;;4344075;32;20513;-60
2022/03/01 02:40:53;;;;;;;63.23;59.10;;;3.10;99.90;;;;;;4343257;32;20153;-60
2022/03/01 02:43:26;;;;;;;61.33;57.13;;;3.10;99.90;;;;;;4346421;32;20292;-60
2022/03/01 02:46:03;;;;;;;62.23;57.67;;;3.10;99.90;;;;;;4344513;32;20248;-60
2022/03/01 02:48:30;;;;;;;62.50;58.47;;;3.10;99.90;;;;;;4344428;32;20259;-60
2022/03/01 02:51:00;;;;;;;63.00;58.73;;;3.10;99.90;;;;;;4343579;32;20204;-59
2022/03/01 02:53:28;;;;;;;64.40;60.07;;;3.10;99.90;;;;;;4341013;32;20236;-57
2022/03/01 02:55:55;;;;;;;63.27;58.87;;;3.00;99.90;;;;;;4345349;32;20155;-59
2022/03/01 02:58:34;;;;;;;62.20;57.87;;;3.00;99.90;;;;;;4344608;32;20242;-59
2022/03/01 03:01:04;;;;;;;60.57;56.60;;;3.00;99.90;;;;;;4350475;32;20157;-60
2022/03/01 03:03:31;;;;;;;62.23;58.07;;;3.00;99.90;;;;;;4354848;32;20181;-60
2022/03/01 03:05:57;;;;;;;64.97;60.60;;;3.00;99.90;;;;;;4347037;33;20197;-60
2022/03/01 03:08:24;;;;;;;61.83;57.70;;;3.00;99.90;;;;;;4356877;33;20206;-60
2022/03/01 03:10:53;;;;;;;59.60;55.80;;;3.00;99.90;;;;;;4361207;32;20201;-59
2022/03/01 03:13:21;;;;;;;62.87;58.57;;;3.10;99.90;;;;;;4361093;33;20236;-62
2022/03/01 03:15:48;;;;;;;63.40;59.43;;;3.10;99.90;;;;;;4360811;33;20455;-59
2022/03/01 03:18:15;;;;;;;62.30;58.33;;;3.10;99.90;;;;;;4360870;33;20169;-60
2022/03/01 03:20:42;;;;;;;63.30;59.23;;;3.10;99.90;;;;;;4361322;32;20183;-59
2022/03/01 03:23:09;;;;;;;62.47;58.37;;;3.20;99.90;;;;;;4370132;32;20157;-59
2022/03/01 03:25:36;;;;;;;62.67;58.23;;;3.20;99.90;;;;;;4375643;32;20196;-60
2022/03/01 03:28:05;;;;;;;64.60;60.13;;;3.30;99.90;;;;;;4376165;32;20216;-59
2022/03/01 03:30:32;;;;;;;62.67;58.47;;;3.30;99.90;;;;;;4376100;32;20167;-60
2022/03/01 03:33:02;;;;;;;61.80;57.93;;;3.30;99.90;;;;;;4375821;32;20199;-59
2022/03/01 03:35:29;;;;;;;62.00;57.67;;;3.40;99.90;;;;;;4370484;32;20211;-61
2022/03/01 03:37:56;;;;;;;60.93;56.73;;;3.40;99.90;;;;;;4360742;33;20173;-59
2022/03/01 03:40:23;;;;;;;67.23;62.77;;;3.40;99.90;;;;;;4360702;33;20196;-59
2022/03/01 03:42:51;;;;;;;62.13;57.80;;;3.40;99.90;;;;;;4360511;32;20204;-59
2022/03/01 03:45:19;;;;;;;62.17;58.07;;;3.40;99.90;;;;;;4360902;32;20165;-61
2022/03/01 03:47:46;;;;;;;62.67;58.30;;;3.40;99.90;;;;;;4361004;32;20184;-59
2022/03/01 03:50:13;;;;;;;67.27;62.77;;;3.30;99.90;;;;;;4360785;32;20548;-61
2022/03/01 03:52:42;;;;;;;71.77;67.27;;;3.30;99.90;;;;;;4369499;32;20210;-61
2022/03/01 03:55:13;;;;;;;57.73;54.03;;;3.30;99.90;;;;;;4375506;32;20531;-61
2022/03/01 03:57:41;;;;;;;59.03;55.00;;;3.20;99.90;;;;;;4345714;33;20167;-61
2022/03/01 04:00:15;;;;;;;64.53;59.63;;;3.20;99.90;;;;;;4345706;33;20146;-61
2022/03/01 04:02:43;;;;;;;65.27;61.43;;;3.20;99.90;;;;;;4347117;33;20145;-61
2022/03/01 04:05:12;;;;;;;63.97;59.67;;;3.20;99.90;;;;;;4370494;32;20182;-61
2022/03/01 04:07:39;;;;;;;61.70;57.80;;;3.30;99.90;;;;;;4373432;32;20188;-61
2022/03/01 04:10:07;;;;;;;61.20;56.97;;;3.30;99.90;;;;;;4376085;32;20188;-61
2022/03/01 04:12:34;;;;;;;60.10;56.10;;;3.40;99.90;;;;;;4378572;32;20653;-61
2022/03/01 04:15:00;;;;;;;63.80;59.50;;;3.30;99.90;;;;;;4377776;32;20223;-62
2022/03/01 04:17:28;;;;;;;63.13;59.20;;;3.30;99.90;;;;;;4363502;33;20149;-61
2022/03/01 04:19:56;;;;;;;57.47;53.77;;;3.30;99.90;;;;;;4363408;33;20202;-61
2022/03/01 04:22:23;;;;;;;63.20;59.07;;;3.40;99.90;;;;;;4363960;32;20541;-61
2022/03/01 04:24:50;;;;;;;63.47;59.27;;;3.40;99.90;;;;;;4363393;33;20154;-61
2022/03/01 04:27:17;;;;;;;56.50;52.70;;;3.40;99.90;;;;;;4363314;32;20145;-62
2022/03/01 04:29:44;;;;;;;60.17;55.93;;;3.50;99.90;;;;;;4363030;32;20220;-61
2022/03/01 04:32:11;;;;;;;57.93;53.93;;;3.50;99.90;;;;;;4364972;32;20582;-61
2022/03/01 04:34:41;;;;;;;54.23;50.43;;;3.50;99.90;;;;;;4364978;32;20558;-61
2022/03/01 04:37:09;;;;;;;54.67;50.57;;;3.50;99.90;;;;;;4358013;33;20203;-61
2022/03/01 04:39:36;;;;;;;61.27;57.10;;;3.50;99.90;;;;;;4348365;33;20201;-61
2022/03/01 04:42:05;;;;;;;57.40;53.50;;;3.60;99.90;;;;;;4349456;33;20168;-61
2022/03/01 04:44:32;;;;;;;59.30;55.10;;;3.60;99.90;;;;;;4355130;33;20169;-62
2022/03/01 04:47:01;;;;;;;57.13;52.90;;;3.50;99.90;;;;;;4363116;32;20170;-61
2022/03/01 04:49:29;;;;;;;54.17;50.50;;;3.50;99.90;;;;;;4362946;32;20216;-61
2022/03/01 04:51:55;;;;;;;57.80;54.03;;;3.40;99.90;;;;;;4362474;32;20152;-61
2022/03/01 04:54:24;;;;;;;54.60;50.80;;;3.50;99.90;;;;;;4363892;32;20185;-60
2022/03/01 04:56:51;;;;;;;55.37;51.73;;;3.50;99.90;;;;;;4361639;32;20209;-61
2022/03/01 04:59:18;;;;;;;59.80;55.50;;;3.50;99.90;;;;;;4363116;32;20212;-61
2022/03/01 05:01:45;;;;;;;58.33;54.43;;;3.60;99.90;;;;;;4362624;32;20205;-61
2022/03/01 05:04:12;;;;;;;56.30;52.40;;;3.60;99.90;;;;;;4362723;32;20160;-61
2022/03/01 05:06:39;;;;;;;57.67;53.87;;;3.60;99.90;;;;;;4360815;32;20152;-61
2022/03/01 05:09:06;;;;;;;53.73;49.83;;;3.70;99.90;;;;;;4363684;32;20211;-61
2022/03/01 05:11:35;;;;;;;54.37;50.27;;;3.60;99.90;;;;;;4362555;32;20212;-59
2022/03/01 05:14:02;;;;;;;56.97;53.03;;;3.70;99.90;;;;;;4354516;33;20185;-61
2022/03/01 05:16:29;;;;;;;59.27;55.27;;;3.70;99.90;;;;;;4361590;33;20153;-61
2022/03/01 05:18:56;;;;;;;57.00;53.00;;;3.70;99.90;;;;;;4350745;32;20572;-61
2022/03/01 05:21:23;;;;;;;56.10;52.30;;;3.70;99.90;;;;;;4362096;32;20180;-61
2022/03/01 05:23:50;;;;;;;55.00;51.03;;;3.70;99.90;;;;;;4362425;32;20236;-60
2022/03/01 05:26:17;;;;;;;54.73;50.97;;;3.70;99.90;;;;;;4362976;32;20184;-61
2022/03/01 05:28:45;;;;;;;52.63;48.77;;;3.70;99.90;;;;;;4362762;32;20260;-61
2022/03/01 05:31:12;;;;;;;65.50;61.33;;;3.70;99.90;;;;;;4361991;33;20224;-60
2022/03/01 05:33:38;;;;;;;53.27;49.67;;;3.60;99.90;;;;;;4364184;32;20237;-60
2022/03/01 05:36:05;;;;;;;53.50;49.90;;;3.60;99.90;;;;;;4363723;32;20568;-61
2022/03/01 05:38:32;;;;;;;52.27;48.63;;;3.50;99.90;;;;;;4347907;33;20199;-60
2022/03/01 05:40:59;;;;;;;50.30;46.60;;;3.50;99.90;;;;;;4358682;33;20182;-61
2022/03/01 05:43:26;;;;;;;51.20;47.60;;;3.60;99.90;;;;;;4362383;33;20147;-61
2022/03/01 05:45:54;;;;;;;51.70;48.10;;;3.60;99.90;;;;;;4358357;33;20240;-61
2022/03/01 05:48:21;;;;;;;55.27;51.57;;;3.70;99.90;;;;;;4360369;32;20177;-60
2022/03/01 05:50:48;;;;;;;54.30;50.23;;;3.70;99.90;;;;;;4360869;32;20575;-61
2022/03/01 05:53:16;;;;;;;52.53;49.17;;;3.70;99.90;;;;;;4362222;33;20209;-61
2022/03/01 05:55:43;;;;;;;56.53;52.53;;;3.70;99.90;;;;;;4360272;32;20213;-61
2022/03/01 05:58:10;;;;;;;54.53;50.53;;;3.60;99.90;;;;;;4358627;32;20186;-61
2022/03/01 06:00:37;;;;;;;53.17;49.37;;;3.60;99.90;;;;;;4361942;32;20301;-61
2022/03/01 06:03:05;;;;;;;52.37;48.80;;;3.60;99.90;;;;;;4363165;32;20183;-61
2022/03/01 06:05:32;;;;;;;54.70;50.73;;;3.60;99.90;;;;;;4361398;33;20273;-61
2022/03/01 06:08:03;;;;;;;51.00;47.70;;;3.60;99.90;;;;;;4361934;33;20206;-61
2022/03/01 06:10:29;;;;;;;52.37;48.53;;;3.70;99.90;;;;;;4363244;32;20149;-62
2022/03/01 06:12:57;;;;;;;54.53;50.67;;;3.70;99.90;;;;;;4361868;32;20173;-61
2022/03/01 06:15:24;;;;;;;50.27;46.63;;;3.80;99.90;;;;;;4363112;32;20176;-61
2022/03/01 06:17:51;;;;;;;54.13;50.40;;;3.80;99.90;;;;;;4360315;33;20180;-61
2022/03/01 06:20:19;;;;;;;53.87;50.10;;;3.80;99.90;;;;;;4361723;32;20642;-61
2022/03/01 06:22:46;;;;;;;52.60;49.00;;;3.90;99.90;;;;;;4361101;32;20198;-61
2022/03/01 06:25:14;;;;;;;52.27;48.70;;;3.90;99.90;;;;;;4360958;33;20171;-62
2022/03/01 06:27:42;;;;;;;51.63;47.53;;;4.00;99.90;;;;;;4361545;32;20214;-62
2022/03/01 06:30:11;;;;;;;51.17;47.17;;;4.00;99.90;;;;;;4358925;33;20228;-61
2022/03/01 06:32:38;;;;;;;48.80;45.30;;;4.00;99.90;;;;;;4360441;32;20165;-62
2022/03/01 06:35:06;;;;;;;50.07;46.67;;;4.00;99.90;;;;;;4361088;32;20160;-61
2022/03/01 06:37:34;;;;;;;50.43;46.73;;;4.10;99.90;;;;;;4360887;33;20194;-62
2022/03/01 06:40:02;;;;;;;49.00;45.53;;;4.00;99.90;;;;;;4360715;33;20209;-61
2022/03/01 06:42:29;;;;;;;48.33;44.83;;;4.10;99.90;;;;;;4360298;33;20221;-61
2022/03/01 06:44:55;;;;;;;53.37;49.60;;;4.10;99.90;;;;;;4360625;33;20224;-61
2022/03/01 06:47:24;;;;;;;48.37;44.90;;;4.20;99.90;;;;;;4360626;33;20191;-61
2022/03/01 06:49:51;;;;;;;50.90;46.83;;;4.20;99.90;;;;;;4360326;33;20216;-62
2022/03/01 06:52:19;;;;;;;49.40;45.77;;;4.30;99.90;;;;;;4360514;33;20169;-61
2022/03/01 06:54:47;;;;;;;46.80;43.33;;;4.30;99.90;;;;;;4362343;32;20578;-61
2022/03/01 06:57:16;;;;;;;48.57;45.03;;;4.30;99.90;;;;;;4360687;33;20588;-63
2022/03/01 06:59:43;;;;;;;46.53;43.23;;;4.40;99.90;;;;;;4362177;32;20611;-61
2022/03/01 07:02:10;;;;;;;47.37;43.63;;;4.50;99.90;;;;;;4356066;33;20625;-61
2022/03/01 07:04:37;;;;;;;53.20;49.47;;;4.50;99.90;;;;;;4360030;32;20217;-60
2022/03/01 07:07:05;;;;;;;45.80;42.40;;;4.60;99.90;;;;;;4359915;33;20160;-62
2022/03/01 07:09:32;;;;;;;46.53;43.37;;;4.60;99.90;;;;;;4359418;32;20259;-59
2022/03/01 07:12:00;;;;;;;50.20;46.67;;;4.60;99.90;;;;;;4359321;33;20203;-60
2022/03/01 07:14:28;;;;;;;44.30;40.90;;;4.60;99.90;;;;;;4357145;32;20224;-60
2022/03/01 07:16:55;;;;;;;49.27;45.87;;;4.60;99.90;;;;;;4351566;33;20148;-60
2022/03/01 07:19:22;;;;;;;46.97;43.63;;;4.70;99.90;;;;;;4355156;33;20172;-60
2022/03/01 07:21:49;;;;;;;45.80;42.43;;;4.70;99.90;;;;;;4356777;32;20190;-60
2022/03/01 07:24:15;;;;;;;47.80;44.10;;;4.70;99.90;;;;;;4356393;32;20231;-60
2022/03/01 07:26:42;;;;;;;42.90;39.83;;;4.80;99.90;;;;;;4352393;32;20240;-61
2022/03/01 07:29:10;;;;;;;44.87;41.67;;;4.90;99.90;;;;;;4350184;33;20176;-61
2022/03/01 07:31:37;;;;;;;43.90;40.73;;;4.90;99.90;;;;;;4353672;33;20172;-60
2022/03/01 07:34:04;;;;;;;47.53;44.30;;;5.10;99.90;;;;;;4357832;33;20585;-60
2022/03/01 07:36:31;;;;;;;45.70;42.27;;;5.30;99.90;;;;;;4357085;33;20159;-60
2022/03/01 07:38:57;;;;;;;45.77;42.30;;;5.40;99.90;;;;;;4358920;32;20549;-60
2022/03/01 07:41:24;;;;;;;41.47;38.30;;;5.50;99.90;;;;;;4354694;32;20624;-60
2022/03/01 07:43:52;;;;;;;42.97;39.73;;;5.60;99.90;;;;;;4352815;32;20175;-61
2022/03/01 07:46:20;;;;;;;42.97;39.70;;;5.50;99.90;;;;;;4350806;33;20210;-60
2022/03/01 07:48:47;;;;;;;41.83;38.83;;;5.60;99.90;;;;;;4353838;32;20209;-60
2022/03/01 07:51:14;;;;;;;44.30;40.73;;;5.60;99.90;;;;;;4355479;32;20199;-60
2022/03/01 07:53:41;;;;;;;43.43;40.17;;;5.70;99.90;;;;;;4354401;32;20179;-61
2022/03/01 07:56:07;;;;;;;44.07;40.80;;;5.70;99.90;;;;;;4354511;32;20533;-61
2022/03/01 07:58:34;;;;;;;40.90;37.70;;;5.90;99.90;;;;;;4357006;32;20193;-61
2022/03/01 08:01:01;;;;;;;40.63;37.53;;;6.10;99.90;;;;;;4355198;33;20164;-61
2022/03/01 08:03:29;;;;;;;39.07;36.07;;;6.30;99.90;;;;;;4354655;33;20165;-60
2022/03/01 08:05:57;;;;;;;46.63;43.10;;;6.40;99.90;;;;;;4354873;33;20231;-62
2022/03/01 08:08:24;;;;;;;38.83;35.83;;;6.50;99.90;;;;;;4356227;33;20655;-62
2022/03/01 08:10:52;;;;;;;42.43;39.37;;;6.60;99.90;;;;;;4357882;33;20183;-60
2022/03/01 08:13:18;;;;;;;45.80;41.93;;;6.60;99.90;;;;;;4353004;33;20560;-62
2022/03/01 08:15:45;;;;;;;39.40;36.37;;;6.70;99.90;;;;;;4354252;33;20219;-60
2022/03/01 08:18:14;;;;;;;44.10;40.73;;;6.80;99.90;;;;;;4351756;33;20596;-61
2022/03/01 08:20:43;;;;;;;44.07;40.50;;;6.90;99.70;;;;;;4353960;33;20165;-60
2022/03/01 08:23:13;;;;;;;42.17;38.97;;;6.90;99.70;;;;;;4354899;33;20581;-60
2022/03/01 08:25:46;;;;;;;37.73;34.53;;;7.00;99.90;;;;;;4353402;33;20576;-62
2022/03/01 08:28:16;;;;;;;42.13;38.83;;;6.90;99.60;;;;;;4354043;33;20216;-62
2022/03/01 08:30:43;;;;;;;41.90;38.70;;;6.90;99.70;;;;;;4356440;33;20516;-62
2022/03/01 08:33:15;;;;;;;40.70;37.20;;;7.00;99.80;;;;;;4358665;33;20199;-61
2022/03/01 08:35:43;;;;;;;38.57;35.57;;;7.10;99.80;;;;;;4354880;33;20594;-61
2022/03/01 08:38:12;;;;;;;40.73;37.53;;;7.10;99.40;;;;;;4355293;33;20192;-61
2022/03/01 08:40:39;;;;;;;41.43;37.90;;;7.30;99.20;;;;;;4355675;33;20161;-61
2022/03/01 08:43:07;;;;;;;39.73;36.43;;;7.60;99.20;;;;;;4358572;33;20335;-61
2022/03/01 08:45:34;;;;;;;42.03;38.47;;;7.70;98.90;;;;;;4355616;33;20695;-63
2022/03/01 08:48:01;;;;;;;39.23;35.90;;;7.70;98.90;;;;;;4355009;33;20161;-62
2022/03/01 08:50:28;;;;;;;40.30;37.10;;;7.80;98.80;;;;;;4355239;33;20492;-60
2022/03/01 08:52:57;;;;;;;41.90;38.33;;;7.80;98.50;;;;;;4356100;33;20180;-61
2022/03/01 08:55:27;;;;;;;38.43;34.93;;;7.70;98.50;;;;;;4353694;32;20180;-60
2022/03/01 08:57:54;;;;;;;36.33;33.20;;;7.70;98.80;;;;;;4359919;32;20166;-62
2022/03/01 09:00:22;;;;;;;40.57;37.07;;;7.70;98.70;;;;;;4358518;33;20160;-61
2022/03/01 09:02:49;;;;;;;38.73;35.00;;;7.90;98.90;;;;;;4356113;33;20179;-61
2022/03/01 09:05:17;;;;;;;38.00;34.60;;;8.00;98.90;;;;;;4355335;33;20353;-61
2022/03/01 09:07:44;;;;;;;37.43;34.23;;;8.20;98.40;;;;;;4359696;32;20160;-61
2022/03/01 09:10:13;;;;;;;39.33;35.83;;;8.50;98.10;;;;;;4359945;33;20173;-60
2022/03/01 09:12:40;;;;;;;36.30;32.90;;;8.80;98.00;;;;;;4356037;32;20528;-62
2022/03/01 09:15:08;;;;;;;40.93;37.63;;;9.00;97.30;;;;;;4358213;33;20200;-62
2022/03/01 09:17:35;;;;;;;35.43;32.37;;;9.20;97.20;;;;;;4359280;32;20198;-62
2022/03/01 09:20:03;;;;;;;34.07;30.83;;;9.20;97.10;;;;;;4360395;33;20153;-61
2022/03/01 09:22:30;;;;;;;36.67;33.27;;;9.30;96.90;;;;;;4356424;32;20495;-61
2022/03/01 09:24:56;;;;;;;34.83;31.53;;;9.30;96.30;;;;;;4357632;33;20204;-61
2022/03/01 09:27:25;;;;;;;35.80;32.53;;;9.30;96.40;;;;;;4357228;33;20576;-61
2022/03/01 09:29:52;;;;;;;34.63;31.83;;;9.20;96.20;;;;;;4361377;33;20154;-61
2022/03/01 09:32:18;;;;;;;34.87;31.47;;;9.00;96.40;;;;;;4355663;32;20237;-60
2022/03/01 09:34:45;;;;;;;34.33;31.13;;;8.90;96.70;;;;;;4360900;32;20176;-61
2022/03/01 09:37:15;;;;;;;33.47;30.37;;;8.80;96.70;;;;;;4361972;32;20504;-61
2022/03/01 09:39:45;;;;;;;31.53;28.40;;;8.70;96.80;;;;;;4352469;32;20165;-61
2022/03/01 09:42:12;;;;;;;33.13;30.03;;;8.90;96.90;;;;;;4358999;32;20213;-60
2022/03/01 09:44:42;;;;;;;34.37;31.07;;;8.90;97.00;;;;;;4349929;33;20200;-62
2022/03/01 09:47:09;;;;;;;35.17;31.83;;;9.00;97.10;;;;;;4359054;33;20454;-60
2022/03/01 09:49:39;;;;;;;33.20;29.97;;;9.00;96.80;;;;;;4353411;33;20175;-60
2022/03/01 09:52:08;;;;;;;32.77;29.67;;;9.00;96.80;;;;;;4358840;33;20205;-62
2022/03/01 09:54:35;;;;;;;33.33;30.20;;;9.10;96.80;;;;;;4354161;33;20200;-61
2022/03/01 09:57:02;;;;;;;31.23;28.27;;;9.20;97.10;;;;;;4348591;33;20209;-61
2022/03/01 09:59:28;;;;;;;34.37;29.73;;;9.10;96.80;;;;;;4357657;32;20286;-61
2022/03/01 10:01:57;;;;;;;31.93;28.63;;;9.10;96.80;;;;;;4357284;32;20188;-62
2022/03/01 10:04:24;;;;;;;32.30;29.20;;;9.00;97.30;;;;;;4357850;33;20694;-61
2022/03/01 10:06:51;;;;;;;34.20;30.60;;;8.90;97.50;;;;;;4350614;32;20949;-62
2022/03/01 10:09:20;;;;;;;34.10;30.97;;;8.90;97.20;;;;;;4355286;32;20184;-61
2022/03/01 10:11:48;;;;;;;33.37;30.27;;;8.80;97.60;;;;;;4356084;32;20157;-60
2022/03/01 10:14:18;;;;;;;33.93;30.60;;;8.80;97.80;;;;;;4355946;33;20177;-61
2022/03/01 10:16:49;;;;;;;32.07;29.20;;;8.80;97.60;;;;;;4356843;33;20156;-61
2022/03/01 10:19:20;;;;;;;35.27;32.03;;;8.70;97.90;;;;;;4299493;32;1668073;-61
2022/03/01 10:21:51;;;;;;;32.87;29.70;;;8.70;97.50;;;;;;4358773;32;20473;-61
2022/03/01 10:24:21;;;;;;;32.43;29.40;;;8.70;97.30;;;;;;4359024;32;20215;-60
2022/03/01 10:26:49;;;;;;;34.20;31.00;;;8.60;97.50;;;;;;4359335;32;20176;-62
2022/03/01 10:29:17;;;;;;;33.63;30.53;;;8.50;97.70;;;;;;4357644;33;20267;-61
2022/03/01 10:31:50;;;;;;;37.87;34.43;;;8.40;97.80;;;;;;4356066;32;20222;-61
2022/03/01 10:34:18;;;;;;;31.77;28.77;;;8.40;98.10;;;;;;4356238;33;20157;-61
2022/03/01 10:36:49;;;;;;;32.00;29.00;;;8.40;98.20;;;;;;4357397;32;20203;-61
2022/03/01 10:39:19;;;;;;;32.97;29.77;;;8.40;98.30;;;;;;4353123;33;20240;-60
2022/03/01 10:41:47;;;;;;;33.13;30.10;;;8.40;98.60;;;;;;4355952;33;20184;-61
2022/03/01 10:44:15;;;;;;;32.50;29.23;;;8.50;98.30;;;;;;4356334;32;20246;-61
2022/03/01 10:46:49;;;;;;;31.73;28.60;;;8.50;98.40;;;;;;4361639;32;20165;-61
2022/03/01 10:49:20;;;;;;;31.33;28.33;;;8.20;98.60;;;;;;4357323;33;20153;-61
2022/03/01 10:51:53;;;;;;;31.73;28.53;;;8.00;99.10;;;;;;4354493;33;20146;-61
2022/03/01 10:54:28;;;;;;;35.83;32.20;;;7.90;99.90;;;;;;4355709;32;20165;-62
2022/03/01 10:56:58;;;;;;;31.37;28.33;;;7.90;99.80;;;;;;4360280;33;20161;-62
2022/03/01 10:59:27;;;;;;;30.73;27.73;;;7.80;99.90;;;;;;4360294;32;20153;-61
2022/03/01 11:01:56;;;;;;;33.67;30.57;;;7.80;99.90;;;;;;4360675;32;20177;-61
2022/03/01 11:04:30;;;;;;;34.33;30.93;;;7.70;99.90;;;;;;4361552;32;20171;-61
2022/03/01 11:07:01;;;;;;;37.97;32.90;;;7.60;99.90;;;;;;4358190;32;20190;-62
2022/03/01 11:09:29;;;;;;;35.90;32.27;;;7.60;99.90;;;;;;4354651;33;20156;-61
2022/03/01 11:11:57;;;;;;;35.00;31.47;;;7.60;99.90;;;;;;4358490;32;20180;-62
2022/03/01 11:14:29;;;;;;;36.03;32.57;;;7.60;99.90;;;;;;4359548;33;20161;-61
2022/03/01 11:17:05;;;;;;;36.13;32.63;;;7.60;99.90;;;;;;4354748;32;20511;-62
2022/03/01 11:20:02;;;;;;;36.53;33.07;;;7.70;99.90;;;;;;4359614;32;20645;-61
2022/03/01 11:22:40;;;;;;;36.00;32.73;;;7.70;99.90;;;;;;4318605;33;20243;-62
2022/03/01 11:25:08;;;;;;;33.93;30.30;;;7.70;99.90;;;;;;4314960;33;20209;-62
2022/03/01 11:27:44;;;;;;;33.77;30.50;;;7.80;99.90;;;;;;4309017;33;20245;-62
2022/03/01 11:30:13;;;;;;;35.57;32.30;;;7.90;99.90;;;;;;4310788;33;20549;-61
2022/03/01 11:32:42;;;;;;;35.23;31.77;;;8.00;99.90;;;;;;4308814;33;20220;-62
2022/03/01 11:35:19;;;;;;;36.57;33.13;;;8.00;99.90;;;;;;4310182;33;20214;-61
2022/03/01 11:37:47;;;;;;;34.87;31.23;;;8.10;99.90;;;;;;4313706;33;20200;-61
2022/03/01 11:40:22;;;;;;;34.00;30.67;;;8.30;99.90;;;;;;4311593;33;20164;-62
2022/03/01 11:42:51;;;;;;;34.87;31.37;;;8.40;99.90;;;;;;4306930;33;20244;-63
2022/03/01 11:45:18;;;;;;;34.37;31.07;;;8.40;99.90;;;;;;4313545;33;20180;-61
2022/03/01 11:47:45;;;;;;;35.07;31.63;;;8.60;99.90;;;;;;4312947;33;20183;-61
2022/03/01 11:50:15;;;;;;;34.00;30.77;;;8.90;99.90;;;;;;4305837;33;20325;-61
2022/03/01 11:52:57;;;;;;;34.03;30.77;;;9.20;99.90;;;;;;4302041;33;20210;-61
2022/03/01 11:55:53;;;;;;;34.10;30.87;;;9.30;99.90;;;;;;4303336;33;20167;-61
2022/03/01 11:58:21;;;;;;;35.57;32.20;;;9.50;99.90;;;;;;4327468;33;20149;-62
2022/03/01 12:00:49;;;;;;;36.50;33.20;;;9.40;99.90;;;;;;4359414;32;20171;-63
2022/03/01 12:03:23;;;;;;;34.37;30.87;;;9.50;99.90;;;;;;4349495;33;20157;-62
2022/03/01 12:05:54;;;;;;;34.53;31.10;;;9.70;99.90;;;;;;4350232;33;20164;-63
2022/03/01 12:08:27;;;;;;;33.73;30.53;;;10.00;99.90;;;;;;4349755;33;20154;-61
2022/03/01 12:10:56;;;;;;;36.17;32.57;;;10.40;99.90;;;;;;4357730;33;20152;-61
2022/03/01 12:13:40;;;;;;;34.37;30.97;;;10.60;99.00;;;;;;4348393;33;20192;-62
2022/03/01 12:16:08;;;;;;;30.53;27.53;;;10.40;98.60;;;;;;4360426;33;20540;-61
2022/03/01 12:18:36;;;;;;;33.00;29.63;;;10.20;98.10;;;;;;4360123;32;20489;-62
2022/03/01 12:21:05;;;;;;;29.33;26.33;;;10.10;98.60;;;;;;4348292;33;20227;-62
2022/03/01 12:23:34;;;;;;;32.17;29.10;;;10.20;98.20;;;;;;4348100;33;20605;-62
2022/03/01 12:26:03;;;;;;;30.33;27.13;;;10.50;98.20;;;;;;4357372;33;20156;-62
2022/03/01 12:28:36;;;;;;;29.93;26.83;;;10.90;97.80;;;;;;4346595;33;20157;-62
2022/03/01 12:31:08;;;;;;;29.87;26.77;;;11.20;97.20;;;;;;4359589;32;20584;-62
2022/03/01 12:33:35;;;;;;;32.87;27.20;;;11.40;96.70;;;;;;4350115;33;20611;-63
2022/03/01 12:36:04;;;;;;;31.73;28.47;;;11.60;96.80;;;;;;4354205;33;20170;-62
2022/03/01 12:38:39;;;;;;;28.87;25.87;;;11.60;96.20;;;;;;4363395;32;20216;-62
2022/03/01 12:41:11;;;;;;;30.40;27.23;;;11.70;95.20;;;;;;4348416;33;20145;-62
2022/03/01 12:43:41;;;;;;;27.73;25.00;;;12.10;95.80;;;;;;4351560;33;20153;-62